Time;durP1;ratioP1;P1;durP2;ratioP2;P2;SDS_P1;SDS_P2;PMS_P1;PMS_P2;Temp;Humidity;BMP_temperature;BMP_pressure;BME280_temperature;BME280_humidity;BME280_pressure;Samples;Min_cycle;Max_cycle;Signal;HPM_P1;HPM_P2
2021/12/04 00:01:49;;;;;;;39.55;19.35;;;-4.20;90.60;;;;;;5050358;28;20021;-75
2021/12/04 00:04:21;;;;;;;46.80;24.27;;;-4.20;90.50;;;;;;5049716;28;20025;-75
2021/12/04 00:06:48;;;;;;;52.20;23.08;;;-4.30;90.40;;;;;;5048341;28;20406;-74
2021/12/04 00:09:15;;;;;;;51.13;21.77;;;-4.30;90.30;;;;;;5050141;28;20455;-74
2021/12/04 00:11:51;;;;;;;53.10;24.65;;;-4.30;90.00;;;;;;5043074;28;20017;-74
2021/12/04 00:14:16;;;;;;;62.50;28.05;;;-4.40;90.00;;;;;;5062983;28;20104;-74
2021/12/04 00:16:42;;;;;;;141.60;52.25;;;-4.40;90.50;;;;;;5062664;28;20113;-74
2021/12/04 00:19:07;;;;;;;105.70;41.15;;;-4.50;90.90;;;;;;5030784;28;20559;-74
2021/12/04 00:21:33;;;;;;;100.90;38.15;;;-4.50;91.00;;;;;;5030662;28;20071;-76
2021/12/04 00:23:58;;;;;;;97.25;32.80;;;-4.60;91.00;;;;;;5029310;28;20112;-74
2021/12/04 00:26:24;;;;;;;71.20;30.52;;;-4.60;91.10;;;;;;5062373;28;20038;-75
2021/12/04 00:28:50;;;;;;;79.75;31.67;;;-4.70;91.80;;;;;;5030481;28;20057;-74
2021/12/04 00:31:15;;;;;;;63.30;27.88;;;-4.70;92.80;;;;;;5030499;28;20061;-75
2021/12/04 00:33:44;;;;;;;67.15;28.88;;;-4.80;92.80;;;;;;5029137;28;20029;-74
2021/12/04 00:36:23;;;;;;;64.35;27.33;;;-4.80;93.30;;;;;;5029201;28;20407;-74
2021/12/04 00:49:45;;;;;;;46.55;20.20;;;-5.10;96.50;;;;;;5029872;28;20033;-74
2021/12/04 00:52:10;;;;;;;43.50;19.75;;;-5.10;97.00;;;;;;5028521;28;20025;-76
2021/12/04 00:54:37;;;;;;;46.92;20.10;;;-5.10;97.10;;;;;;5030133;28;20036;-74
2021/12/04 00:57:03;;;;;;;43.95;20.75;;;-5.20;96.90;;;;;;5028925;28;20013;-73
2021/12/04 00:59:29;;;;;;;54.55;19.25;;;-5.20;97.10;;;;;;5028729;28;20504;-74
2021/12/04 01:01:56;;;;;;;42.75;20.30;;;-5.30;97.70;;;;;;5030107;28;20585;-74
2021/12/04 01:04:22;;;;;;;40.45;17.85;;;-5.30;98.40;;;;;;5028769;28;20021;-74
2021/12/04 01:06:48;;;;;;;48.38;21.25;;;-5.40;99.10;;;;;;5029985;28;20506;-73
2021/12/04 01:09:16;;;;;;;64.45;24.15;;;-5.40;99.90;;;;;;5028691;28;20535;-74
2021/12/04 01:11:43;;;;;;;53.60;21.13;;;-5.50;99.90;;;;;;5029898;28;20017;-74
2021/12/04 01:14:11;;;;;;;42.55;20.80;;;-5.50;99.90;;;;;;5028582;28;20038;-74
2021/12/04 01:16:37;;;;;;;50.33;22.00;;;-5.60;99.90;;;;;;5030050;28;20105;-74
2021/12/04 01:19:03;;;;;;;46.00;19.40;;;-5.60;99.90;;;;;;5029835;28;20487;-74
2021/12/04 01:21:29;;;;;;;40.85;17.73;;;-5.70;99.90;;;;;;5029844;28;20028;-75
2021/12/04 01:23:55;;;;;;;33.55;15.82;;;-5.70;99.90;;;;;;5028491;28;20104;-74
2021/12/04 01:26:21;;;;;;;55.85;23.95;;;-5.80;99.90;;;;;;5029692;28;20080;-74
2021/12/04 01:28:47;;;;;;;73.53;28.60;;;-5.80;99.90;;;;;;5029650;28;20474;-74
2021/12/04 01:31:12;;;;;;;68.75;27.13;;;-5.90;99.90;;;;;;5029658;28;20024;-74
2021/12/04 01:33:38;;;;;;;64.50;22.83;;;-6.00;99.90;;;;;;5029617;28;20033;-73
2021/12/04 01:36:03;;;;;;;58.83;22.88;;;-6.00;99.90;;;;;;5029692;28;20022;-75
2021/12/04 01:38:29;;;;;;;59.38;24.45;;;-6.00;99.90;;;;;;5028322;28;20033;-74
2021/12/04 01:40:55;;;;;;;68.90;28.17;;;-6.10;99.90;;;;;;5029612;28;20059;-74
2021/12/04 01:43:20;;;;;;;63.17;26.30;;;-6.10;99.90;;;;;;5028105;28;20037;-73
2021/12/04 01:45:46;;;;;;;61.35;26.20;;;-6.20;99.90;;;;;;5029320;28;20033;-75
2021/12/04 01:48:12;;;;;;;54.22;24.85;;;-6.20;99.90;;;;;;5028254;28;20061;-75
2021/12/04 01:50:37;;;;;;;58.28;25.77;;;-6.30;99.90;;;;;;5029713;28;20461;-73
2021/12/04 01:53:04;;;;;;;48.17;22.40;;;-6.30;99.90;;;;;;5029513;28;20017;-75
2021/12/04 01:55:34;;;;;;;40.95;18.00;;;-6.30;99.90;;;;;;5061252;28;20101;-74
2021/12/04 01:58:01;;;;;;;44.38;19.13;;;-6.40;99.90;;;;;;5029400;28;20029;-73
2021/12/04 02:00:28;;;;;;;38.13;18.23;;;-6.40;99.90;;;;;;5029599;28;20022;-73
2021/12/04 02:02:54;;;;;;;37.08;15.98;;;-6.40;99.90;;;;;;5031838;28;20029;-74
2021/12/04 02:05:19;;;;;;;30.80;15.47;;;-6.50;99.90;;;;;;5031466;28;20021;-74
2021/12/04 02:07:46;;;;;;;32.72;14.35;;;-6.50;99.90;;;;;;5031437;28;20081;-75
2021/12/04 02:10:11;;;;;;;44.30;16.85;;;-6.40;99.90;;;;;;5032949;28;20036;-74
2021/12/04 02:12:37;;;;;;;40.70;18.40;;;-6.50;99.90;;;;;;5031356;28;20029;-74
2021/12/04 02:15:05;;;;;;;40.83;19.33;;;-6.50;99.90;;;;;;5031232;28;20030;-75
2021/12/04 02:17:32;;;;;;;43.95;19.77;;;-6.40;99.90;;;;;;5032505;28;20041;-74
2021/12/04 02:19:57;;;;;;;50.23;21.57;;;-6.30;99.90;;;;;;5032504;28;20029;-73
2021/12/04 02:22:23;;;;;;;38.50;18.97;;;-6.30;99.90;;;;;;5032501;28;20021;-75
2021/12/04 02:24:49;;;;;;;43.27;17.83;;;-6.20;99.90;;;;;;5031127;28;20021;-74
2021/12/04 02:27:14;;;;;;;37.65;17.65;;;-6.20;99.90;;;;;;5031049;28;20501;-75
2021/12/04 02:29:47;;;;;;;27.88;16.88;;;-6.20;99.90;;;;;;5032290;28;20036;-73
2021/12/04 02:32:13;;;;;;;74.90;27.85;;;-6.10;99.90;;;;;;5064310;28;20494;-73
2021/12/04 02:34:39;;;;;;;49.72;21.58;;;-6.00;99.90;;;;;;5032264;28;20029;-74
2021/12/04 02:37:08;;;;;;;43.70;22.40;;;-6.00;99.90;;;;;;5032277;28;20022;-74
2021/12/04 02:39:34;;;;;;;42.53;20.75;;;-5.90;99.90;;;;;;5064256;28;20106;-74
2021/12/04 02:42:01;;;;;;;31.40;16.58;;;-5.90;99.90;;;;;;5032235;28;20030;-74
2021/12/04 02:44:34;;;;;;;46.72;17.65;;;-6.00;99.90;;;;;;5030968;28;20398;-75
2021/12/04 02:47:00;;;;;;;43.03;17.52;;;-6.00;99.90;;;;;;5031078;28;20041;-74
2021/12/04 02:49:26;;;;;;;45.70;18.88;;;-6.00;99.90;;;;;;5031994;28;20021;-73
2021/12/04 02:51:51;;;;;;;34.10;17.95;;;-6.00;99.90;;;;;;5032002;28;20398;-75
2021/12/04 02:54:17;;;;;;;39.75;17.88;;;-6.00;99.90;;;;;;5031978;28;20086;-74
2021/12/04 02:56:44;;;;;;;30.45;15.68;;;-6.00;99.90;;;;;;5031965;28;20026;-74
2021/12/04 02:59:11;;;;;;;32.05;17.50;;;-6.00;99.90;;;;;;5031884;28;20040;-73
2021/12/04 03:01:39;;;;;;;27.48;15.82;;;-6.00;99.90;;;;;;5030526;28;20030;-74
2021/12/04 03:04:09;;;;;;;43.10;18.33;;;-6.00;99.90;;;;;;5030488;28;20394;-74
2021/12/04 03:06:44;;;;;;;35.50;18.92;;;-6.00;99.90;;;;;;5031701;28;20078;-74
2021/12/04 03:09:10;;;;;;;53.20;20.13;;;-6.10;99.90;;;;;;5031767;28;20014;-74
2021/12/04 03:11:36;;;;;;;55.13;22.75;;;-6.20;99.90;;;;;;5030463;28;20024;-74
2021/12/04 03:14:03;;;;;;;50.50;21.58;;;-6.30;99.90;;;;;;5029427;28;20026;-74
2021/12/04 03:16:31;;;;;;;51.50;21.60;;;-6.30;99.90;;;;;;5031716;28;20025;-74
2021/12/04 03:18:57;;;;;;;46.38;19.90;;;-6.40;99.90;;;;;;5031568;28;20025;-73
2021/12/04 03:21:22;;;;;;;49.13;21.15;;;-6.40;99.90;;;;;;5030307;28;20029;-74
2021/12/04 03:23:53;;;;;;;46.37;21.07;;;-6.40;99.90;;;;;;5030230;28;20026;-74
2021/12/04 03:26:19;;;;;;;62.33;23.17;;;-6.50;99.90;;;;;;5031517;28;20478;-74
2021/12/04 03:28:45;;;;;;;107.45;40.20;;;-6.50;99.90;;;;;;5030187;28;20104;-74
2021/12/04 03:31:36;;;;;;;109.20;39.83;;;-6.40;99.90;;;;;;5031459;28;20559;-74
2021/12/04 03:42:16;;;;;;;26.00;15.03;;;-6.40;99.90;;;;;;5031382;28;20041;-74
2021/12/04 03:44:42;;;;;;;26.80;13.90;;;-6.40;99.90;;;;;;5031087;28;20034;-74
2021/12/04 03:47:09;;;;;;;25.97;13.00;;;-6.40;99.90;;;;;;5029858;28;20083;-75
2021/12/04 03:49:35;;;;;;;39.40;17.35;;;-6.40;99.90;;;;;;5031111;28;20041;-73
2021/12/04 03:52:00;;;;;;;37.50;15.27;;;-6.40;99.90;;;;;;5031139;28;20080;-75
2021/12/04 03:54:26;;;;;;;31.88;14.48;;;-6.40;99.90;;;;;;5030988;28;20032;-74
2021/12/04 03:57:02;;;;;;;28.52;14.82;;;-6.30;99.90;;;;;;5031036;28;20040;-76
2021/12/04 03:59:28;;;;;;;30.20;14.45;;;-6.30;99.90;;;;;;5031041;28;20074;-73
2021/12/04 04:01:54;;;;;;;35.23;16.30;;;-6.20;99.90;;;;;;5029744;28;20471;-76
2021/12/04 04:04:19;;;;;;;29.42;16.45;;;-6.20;99.90;;;;;;5030885;28;20428;-74
2021/12/04 04:06:45;;;;;;;35.85;17.60;;;-6.20;99.90;;;;;;5030795;28;20029;-74
2021/12/04 04:09:10;;;;;;;36.58;19.40;;;-6.10;99.90;;;;;;5029566;28;20587;-73
2021/12/04 04:11:36;;;;;;;36.60;19.33;;;-6.10;99.90;;;;;;5030812;28;20022;-75
2021/12/04 04:14:04;;;;;;;31.00;18.35;;;-6.00;99.90;;;;;;5029466;28;20109;-74
2021/12/04 04:16:30;;;;;;;35.95;17.27;;;-6.00;99.90;;;;;;5029483;28;20112;-74
2021/12/04 04:18:55;;;;;;;47.30;22.40;;;-5.90;99.90;;;;;;5030693;28;20104;-73
2021/12/04 04:21:21;;;;;;;46.17;21.55;;;-5.90;99.90;;;;;;5029453;28;20031;-73
2021/12/04 04:23:46;;;;;;;57.03;23.08;;;-5.90;99.90;;;;;;5029329;28;20036;-74
2021/12/04 04:26:12;;;;;;;51.45;23.88;;;-6.00;99.90;;;;;;5029121;28;20120;-74
2021/12/04 04:28:38;;;;;;;52.38;26.15;;;-6.00;99.90;;;;;;5030500;28;20078;-74
2021/12/04 04:31:05;;;;;;;48.10;22.50;;;-6.00;99.90;;;;;;5030528;28;20022;-74
2021/12/04 04:33:36;;;;;;;40.75;21.83;;;-5.90;99.90;;;;;;5029220;28;20064;-74
2021/12/04 05:12:12;;;;;;;42.15;21.17;;;-5.70;99.90;;;;;;5030104;28;20037;-74
2021/12/04 05:14:21;;;;;;;43.50;20.83;;;-5.60;99.90;;;;;;5027547;28;20037;-74
2021/12/04 05:17:01;;;;;;;37.40;19.50;;;-5.60;99.90;;;;;;5029831;28;20379;-74
2021/12/04 05:19:37;;;;;;;34.40;17.33;;;-5.60;99.90;;;;;;5029747;28;20104;-74
2021/12/04 05:22:04;;;;;;;39.38;20.30;;;-5.60;99.90;;;;;;5029820;28;20022;-74
2021/12/04 05:24:29;;;;;;;76.40;34.08;;;-5.70;99.90;;;;;;5029767;28;20033;-73
2021/12/04 05:26:55;;;;;;;38.95;19.42;;;-5.60;99.90;;;;;;5028477;28;20056;-75
2021/12/04 05:29:20;;;;;;;28.50;17.08;;;-5.70;99.90;;;;;;5029707;28;20029;-74
2021/12/04 05:31:46;;;;;;;26.48;15.52;;;-5.70;99.90;;;;;;5028457;28;20382;-75
2021/12/04 05:34:12;;;;;;;32.65;16.25;;;-5.60;99.90;;;;;;5028348;28;20032;-74
2021/12/04 05:36:37;;;;;;;26.98;15.45;;;-5.60;99.90;;;;;;5061999;28;20026;-74
2021/12/04 05:39:04;;;;;;;30.52;15.98;;;-5.60;99.90;;;;;;5033076;28;20014;-74
2021/12/04 05:41:30;;;;;;;37.40;17.80;;;-5.60;99.90;;;;;;5031853;28;20021;-74
2021/12/04 05:43:56;;;;;;;39.13;19.35;;;-5.60;99.90;;;;;;5033264;28;20405;-73
2021/12/04 05:46:27;;;;;;;25.85;15.70;;;-5.60;99.90;;;;;;5031643;28;20132;-74
2021/12/04 05:54:07;;;;;;;28.38;14.52;;;-5.50;99.90;;;;;;5033217;28;20068;-73
2021/12/04 05:56:33;;;;;;;32.85;16.48;;;-5.40;99.90;;;;;;5032394;28;20033;-74
2021/12/04 05:58:59;;;;;;;33.08;15.20;;;-5.40;99.90;;;;;;5031419;28;20028;-74
2021/12/04 06:01:27;;;;;;;34.00;15.35;;;-5.30;99.90;;;;;;5031543;28;20063;-74
2021/12/04 06:03:53;;;;;;;29.40;15.93;;;-5.30;99.90;;;;;;5032725;28;20029;-73
2021/12/04 06:06:19;;;;;;;30.10;15.75;;;-5.30;99.90;;;;;;5032725;28;20041;-73
2021/12/04 06:08:45;;;;;;;27.23;15.65;;;-5.30;99.90;;;;;;5031387;28;20487;-74
2021/12/04 06:11:11;;;;;;;35.92;17.45;;;-5.20;99.90;;;;;;5031435;28;20017;-74
2021/12/04 06:13:37;;;;;;;37.70;20.08;;;-5.20;99.90;;;;;;5032651;28;20025;-74
2021/12/04 06:16:02;;;;;;;35.63;16.65;;;-5.20;99.90;;;;;;5031328;28;20033;-75
2021/12/04 06:18:28;;;;;;;29.75;14.40;;;-5.10;99.90;;;;;;5032568;28;20497;-74
2021/12/04 06:23:38;;;;;;;27.25;14.77;;;-5.10;99.90;;;;;;5032730;28;20036;-73
2021/12/04 06:26:07;;;;;;;32.05;15.07;;;-5.00;99.90;;;;;;5111706;27;20022;-75
2021/12/04 06:28:32;;;;;;;33.17;17.88;;;-5.00;99.90;;;;;;5155136;27;20377;-73
2021/12/04 06:30:59;;;;;;;30.05;18.42;;;-5.00;99.90;;;;;;5046174;28;20033;-74
2021/12/04 06:33:25;;;;;;;41.80;19.80;;;-4.90;99.90;;;;;;5030670;28;20435;-74
2021/12/04 06:35:52;;;;;;;46.88;24.77;;;-5.00;99.90;;;;;;5030408;28;20127;-75
2021/12/04 06:38:18;;;;;;;69.32;32.10;;;-4.90;99.90;;;;;;5030970;28;20017;-74
2021/12/04 06:40:46;;;;;;;87.75;37.78;;;-5.00;99.90;;;;;;5030686;28;20026;-74
2021/12/04 06:43:12;;;;;;;137.32;50.50;;;-5.00;99.90;;;;;;5030852;28;20387;-74
2021/12/04 06:45:41;;;;;;;101.72;43.35;;;-5.00;99.90;;;;;;5030737;28;20022;-74
2021/12/04 06:48:10;;;;;;;146.15;54.03;;;-5.00;99.90;;;;;;5030670;28;20038;-74
2021/12/04 06:50:49;;;;;;;142.60;56.70;;;-5.10;99.90;;;;;;5031159;28;20559;-74
2021/12/04 06:55:53;;;;;;;138.77;57.03;;;-5.10;99.90;;;;;;5031913;28;20037;-74
2021/12/04 06:58:19;;;;;;;147.60;56.10;;;-5.10;99.90;;;;;;5030631;28;20432;-74
2021/12/04 07:00:45;;;;;;;120.63;57.40;;;-5.10;99.90;;;;;;5030411;28;20026;-74
2021/12/04 07:03:10;;;;;;;150.50;64.53;;;-5.10;99.90;;;;;;5030473;28;20029;-74
2021/12/04 07:05:36;;;;;;;101.82;48.83;;;-5.10;99.90;;;;;;5029869;28;20022;-74
2021/12/04 07:08:02;;;;;;;96.40;56.03;;;-5.10;99.90;;;;;;5030538;28;20033;-75
2021/12/04 07:10:27;;;;;;;96.75;54.97;;;-5.10;99.90;;;;;;5085383;27;20023;-74
2021/12/04 07:12:53;;;;;;;98.30;49.17;;;-5.00;99.90;;;;;;5098770;27;20017;-74
2021/12/04 07:15:18;;;;;;;118.68;53.55;;;-5.00;99.90;;;;;;5049238;28;20021;-74
2021/12/04 07:17:44;;;;;;;150.32;66.68;;;-5.00;99.90;;;;;;5050066;28;20390;-75
2021/12/04 07:20:10;;;;;;;150.90;68.32;;;-5.00;99.90;;;;;;5050900;28;20363;-74
2021/12/04 07:22:36;;;;;;;120.68;56.35;;;-5.00;99.90;;;;;;5050047;28;20021;-75
2021/12/04 07:25:04;;;;;;;132.55;58.08;;;-5.00;99.90;;;;;;5051170;27;20111;-74
2021/12/04 07:27:30;;;;;;;143.40;57.92;;;-5.00;99.90;;;;;;5050087;27;20110;-75
2021/12/04 07:29:56;;;;;;;147.82;61.35;;;-5.00;99.90;;;;;;5050063;27;20032;-74
2021/12/04 07:32:24;;;;;;;105.80;46.70;;;-4.90;99.90;;;;;;5066144;27;20037;-75
2021/12/04 07:34:50;;;;;;;119.72;49.85;;;-4.90;99.90;;;;;;5093226;27;20025;-74
2021/12/04 07:37:16;;;;;;;138.15;63.85;;;-4.90;99.90;;;;;;5094936;27;20021;-75
2021/12/04 07:39:41;;;;;;;135.40;64.35;;;-4.80;99.90;;;;;;5064573;27;20466;-74
2021/12/04 07:42:07;;;;;;;183.82;77.80;;;-4.80;99.90;;;;;;5150716;27;20062;-74
2021/12/04 07:44:33;;;;;;;185.35;76.13;;;-4.70;99.90;;;;;;5156531;27;20030;-75
2021/12/04 07:46:58;;;;;;;167.93;73.95;;;-4.60;99.90;;;;;;5154660;27;20029;-74
2021/12/04 07:49:24;;;;;;;169.90;76.55;;;-4.50;99.90;;;;;;5154630;27;20472;-74
2021/12/04 07:51:50;;;;;;;160.75;70.30;;;-4.40;99.90;;;;;;5155373;27;20033;-75
2021/12/04 07:54:16;;;;;;;150.75;67.38;;;-4.40;99.90;;;;;;5154489;27;20019;-74
2021/12/04 07:56:43;;;;;;;113.47;51.40;;;-4.30;99.90;;;;;;5155864;27;20015;-74
2021/12/04 07:59:08;;;;;;;127.35;61.67;;;-4.20;99.90;;;;;;5155170;27;20027;-74
2021/12/04 08:01:34;;;;;;;103.20;46.85;;;-4.10;99.90;;;;;;5155559;27;20532;-75
2021/12/04 08:04:00;;;;;;;93.32;43.72;;;-4.00;99.90;;;;;;5155590;27;20535;-74
2021/12/04 08:06:26;;;;;;;60.85;30.63;;;-3.90;99.90;;;;;;5154955;27;20030;-75
2021/12/04 08:08:58;;;;;;;54.00;26.88;;;-3.90;99.90;;;;;;5063436;27;20378;-74
2021/12/04 08:11:25;;;;;;;55.40;27.77;;;-3.80;99.90;;;;;;5049383;28;20046;-74
2021/12/04 08:13:51;;;;;;;43.88;22.02;;;-3.70;99.90;;;;;;5050035;28;20452;-75
2021/12/04 08:16:18;;;;;;;50.83;24.10;;;-3.60;99.90;;;;;;5049520;27;20085;-76
2021/12/04 08:18:44;;;;;;;46.95;24.75;;;-3.50;99.90;;;;;;5048654;28;20056;-75
2021/12/04 08:21:10;;;;;;;54.80;28.40;;;-3.50;99.90;;;;;;5048302;28;20044;-74
2021/12/04 08:23:35;;;;;;;74.90;37.35;;;-3.40;99.90;;;;;;5048749;28;20426;-74
2021/12/04 08:26:01;;;;;;;94.60;44.83;;;-3.30;99.90;;;;;;5049793;28;20033;-75
2021/12/04 08:28:27;;;;;;;96.43;48.25;;;-3.20;99.90;;;;;;5049641;28;20029;-75
2021/12/04 08:30:53;;;;;;;110.32;52.00;;;-3.20;99.90;;;;;;5048701;27;20013;-75
2021/12/04 08:33:18;;;;;;;108.70;54.88;;;-3.00;99.90;;;;;;5048711;27;20158;-76
2021/12/04 08:35:44;;;;;;;105.75;54.63;;;-3.00;99.90;;;;;;5049252;28;20018;-74
2021/12/04 08:38:12;;;;;;;130.55;61.28;;;-2.90;99.90;;;;;;5049240;28;20032;-76
2021/12/04 08:40:39;;;;;;;153.30;71.15;;;-2.70;99.90;;;;;;5048427;27;20069;-75
2021/12/04 08:43:06;;;;;;;167.07;91.20;;;-2.60;99.90;;;;;;5049417;28;20061;-74
2021/12/04 08:45:32;;;;;;;109.78;60.40;;;-2.50;99.90;;;;;;5048360;28;20486;-74
2021/12/04 08:47:57;;;;;;;70.07;35.63;;;-2.40;99.90;;;;;;5048126;28;20043;-76
2021/12/04 08:50:27;;;;;;;56.55;28.15;;;-2.30;99.90;;;;;;5048244;28;20132;-75
2021/12/04 08:52:56;;;;;;;45.85;23.23;;;-2.10;99.90;;;;;;5049579;28;20032;-75
2021/12/04 08:55:23;;;;;;;60.83;29.15;;;-2.00;99.90;;;;;;5049430;28;20024;-76
2021/12/04 08:57:49;;;;;;;36.83;19.85;;;-1.80;99.90;;;;;;5048067;27;20394;-75
2021/12/04 09:00:34;;;;;;;49.00;20.95;;;-1.70;99.90;;;;;;5049524;28;20033;-76
2021/12/04 09:03:00;;;;;;;31.23;19.08;;;-1.60;99.90;;;;;;5048687;28;20029;-75
2021/12/04 09:05:26;;;;;;;36.70;18.08;;;-1.50;99.90;;;;;;5047829;28;20033;-74
2021/12/04 09:07:52;;;;;;;34.60;17.08;;;-1.40;99.90;;;;;;5047499;27;20077;-75
2021/12/04 09:10:18;;;;;;;36.88;14.35;;;-1.30;97.00;;;;;;5049280;28;20381;-75
2021/12/04 09:12:45;;;;;;;33.00;16.23;;;-1.30;93.50;;;;;;5046809;27;20128;-75
2021/12/04 09:15:14;;;;;;;29.17;14.10;;;-1.20;91.30;;;;;;5046644;28;20501;-75
2021/12/04 09:17:39;;;;;;;28.38;13.68;;;-1.10;89.70;;;;;;5046803;28;20021;-76
2021/12/04 09:20:07;;;;;;;26.83;13.55;;;-1.00;89.40;;;;;;5047368;28;20162;-76
2021/12/04 09:22:36;;;;;;;25.15;13.20;;;-1.00;85.90;;;;;;5046621;28;20223;-75
2021/12/04 09:25:16;;;;;;;26.30;13.60;;;-0.90;86.20;;;;;;5049307;28;20021;-74
2021/12/04 09:30:54;;;;;;;24.92;13.00;;;-0.80;87.20;;;;;;5046960;28;20370;-75
2021/12/04 10:33:53;;;;;;;15.85;9.02;;;0.50;79.30;;;;;;5051895;28;20040;-75
2021/12/04 10:36:29;;;;;;;17.92;10.15;;;0.70;77.30;;;;;;5052171;28;20036;-76
2021/12/04 10:38:55;;;;;;;24.75;11.30;;;0.70;76.40;;;;;;5051175;28;20020;-76
2021/12/04 10:41:34;;;;;;;23.98;12.75;;;0.80;75.20;;;;;;5052090;28;20029;-76
2021/12/04 10:44:18;;;;;;;25.70;13.68;;;0.80;74.10;;;;;;5050762;28;20029;-76
2021/12/04 10:46:58;;;;;;;21.45;11.35;;;0.90;73.90;;;;;;5050533;28;20043;-76
2021/12/04 10:49:41;;;;;;;22.70;11.57;;;0.90;74.00;;;;;;5050066;28;20036;-76
2021/12/04 10:52:32;;;;;;;24.60;11.63;;;1.00;73.10;;;;;;5052062;28;20533;-76
2021/12/04 10:55:10;;;;;;;19.83;10.93;;;1.10;72.80;;;;;;5051899;28;20014;-75
2021/12/04 11:19:52;;;;;;;21.17;10.68;;;1.30;68.90;;;;;;5051721;28;20036;-78
2021/12/04 11:22:26;;;;;;;22.35;10.95;;;1.30;68.50;;;;;;5051402;27;20524;-76
2021/12/04 11:38:28;;;;;;;30.63;12.93;;;1.40;66.90;;;;;;5051201;28;20504;-78
2021/12/04 11:43:29;;;;;;;20.35;10.57;;;1.50;66.60;;;;;;5050274;28;20124;-76
2021/12/04 11:48:39;;;;;;;15.85;10.25;;;1.50;65.90;;;;;;5050330;28;20048;-76
2021/12/04 11:51:12;;;;;;;29.33;13.68;;;1.50;65.30;;;;;;5049463;28;20086;-76
2021/12/04 11:53:38;;;;;;;25.60;12.35;;;1.50;65.30;;;;;;5050123;28;20505;-76
2021/12/04 11:56:04;;;;;;;22.90;10.98;;;1.50;65.30;;;;;;5049589;28;20021;-77
2021/12/04 11:58:33;;;;;;;24.02;12.07;;;1.50;65.90;;;;;;5052696;28;20059;-76
2021/12/04 12:01:01;;;;;;;22.48;10.77;;;1.50;66.30;;;;;;5050818;28;20021;-77
2021/12/04 12:03:30;;;;;;;19.27;10.75;;;1.60;65.20;;;;;;5045195;27;20478;-77
2021/12/04 12:06:03;;;;;;;22.80;11.43;;;1.60;64.20;;;;;;5155142;27;20067;-77
2021/12/04 12:08:37;;;;;;;24.58;12.13;;;1.60;63.90;;;;;;5153852;27;20051;-76
2021/12/04 12:11:19;;;;;;;22.85;11.68;;;1.70;64.70;;;;;;5132016;27;20045;-77
2021/12/04 12:13:50;;;;;;;32.42;14.38;;;1.70;64.90;;;;;;5049367;28;20061;-77
2021/12/04 12:16:20;;;;;;;19.50;10.95;;;1.70;64.90;;;;;;5124859;27;20010;-77
2021/12/04 12:19:00;;;;;;;19.95;11.25;;;1.80;63.80;;;;;;5154049;27;20071;-77
2021/12/04 12:21:55;;;;;;;24.80;11.88;;;1.90;64.10;;;;;;5155481;27;20025;-77
2021/12/04 12:27:20;;;;;;;32.33;17.65;;;2.10;62.30;;;;;;5155131;27;20480;-77
2021/12/04 12:38:32;;;;;;;24.92;13.25;;;2.40;61.10;;;;;;5143755;27;20031;-75
2021/12/04 12:41:00;;;;;;;48.83;23.33;;;2.50;61.00;;;;;;5152756;27;20057;-77
2021/12/04 12:43:35;;;;;;;65.80;29.80;;;2.40;61.30;;;;;;5151197;27;20060;-75
2021/12/04 12:46:00;;;;;;;46.85;20.85;;;2.40;60.20;;;;;;5154093;27;20023;-75
2021/12/04 12:48:26;;;;;;;29.02;13.60;;;2.40;59.90;;;;;;5153394;27;20035;-75
2021/12/04 12:50:53;;;;;;;40.20;16.98;;;2.40;60.20;;;;;;5153574;27;20022;-75
2021/12/04 12:53:28;;;;;;;49.63;22.75;;;2.30;60.30;;;;;;5154896;27;20037;-75
2021/12/04 12:56:06;;;;;;;45.70;23.15;;;2.30;60.60;;;;;;5153491;27;20031;-75
2021/12/04 12:58:43;;;;;;;38.25;19.90;;;2.40;60.80;;;;;;5153522;27;20026;-75
2021/12/04 13:12:49;;;;;;;17.15;8.15;;;2.70;58.60;;;;;;5154925;27;20514;-75
2021/12/04 13:15:29;;;;;;;16.13;8.20;;;2.70;57.80;;;;;;5154657;27;20459;-75
2021/12/04 13:17:55;;;;;;;21.02;10.40;;;2.70;58.10;;;;;;5153329;27;20022;-75
2021/12/04 13:20:23;;;;;;;19.25;9.82;;;2.70;58.70;;;;;;5154205;27;20019;-75
2021/12/04 13:22:48;;;;;;;15.93;7.80;;;2.70;59.40;;;;;;5070117;27;20028;-76
2021/12/04 13:25:14;;;;;;;21.13;9.35;;;2.60;59.80;;;;;;5077810;27;20023;-75
2021/12/04 13:30:16;;;;;;;16.48;8.82;;;2.60;59.50;;;;;;5150325;27;20421;-75
2021/12/04 13:32:44;;;;;;;18.45;10.00;;;2.50;60.20;;;;;;5150487;27;20018;-75
2021/12/04 13:35:10;;;;;;;20.13;9.18;;;2.50;59.80;;;;;;5150246;27;20019;-74
2021/12/04 13:37:36;;;;;;;16.20;8.90;;;2.40;59.30;;;;;;5150336;27;20023;-75
2021/12/04 13:40:06;;;;;;;14.65;8.82;;;2.40;59.70;;;;;;5149241;27;20432;-74
2021/12/04 13:42:33;;;;;;;22.83;13.30;;;2.40;60.50;;;;;;5148316;27;20253;-74
2021/12/04 13:45:05;;;;;;;25.42;14.57;;;2.30;60.70;;;;;;5147674;27;20026;-75
2021/12/04 13:47:30;;;;;;;21.85;11.18;;;2.30;60.80;;;;;;5117599;27;20109;-74
2021/12/04 13:50:06;;;;;;;17.38;11.10;;;2.30;61.10;;;;;;5075319;27;20501;-75
2021/12/04 13:52:33;;;;;;;16.10;10.90;;;2.30;60.90;;;;;;5045145;28;20496;-74
2021/12/04 13:55:12;;;;;;;16.45;9.52;;;2.20;60.50;;;;;;5045917;28;20490;-75
2021/12/04 13:57:42;;;;;;;17.08;12.30;;;2.20;61.50;;;;;;5047718;28;20128;-75
2021/12/04 14:00:11;;;;;;;24.85;15.02;;;2.10;60.70;;;;;;5050672;27;20073;-75
2021/12/04 14:02:37;;;;;;;22.58;16.75;;;2.10;60.30;;;;;;5051367;28;20025;-74
2021/12/04 14:05:15;;;;;;;18.98;10.77;;;2.10;60.80;;;;;;5051709;28;20036;-75
2021/12/04 14:07:50;;;;;;;45.35;20.80;;;2.10;61.30;;;;;;5050621;28;20471;-75
2021/12/04 14:10:34;;;;;;;30.00;12.82;;;2.00;61.80;;;;;;5050596;28;20035;-75
2021/12/04 14:13:02;;;;;;;15.07;9.25;;;1.90;62.00;;;;;;5050091;27;20470;-75
2021/12/04 14:15:28;;;;;;;18.58;10.63;;;1.90;61.40;;;;;;5050523;28;20119;-74
2021/12/04 14:17:59;;;;;;;14.98;8.10;;;1.80;61.60;;;;;;5050242;28;20115;-76
2021/12/04 14:20:26;;;;;;;20.77;9.82;;;1.80;62.50;;;;;;5050046;28;20025;-76
2021/12/04 14:22:54;;;;;;;20.50;9.30;;;1.80;62.40;;;;;;5050329;28;20052;-76
2021/12/04 14:25:22;;;;;;;22.10;10.40;;;1.70;62.60;;;;;;5051504;28;20029;-76
2021/12/04 14:27:49;;;;;;;18.80;10.60;;;1.70;63.00;;;;;;5049848;27;20033;-77
2021/12/04 14:30:25;;;;;;;25.75;13.85;;;1.60;63.00;;;;;;5050282;27;20040;-76
2021/12/04 14:32:54;;;;;;;36.72;16.20;;;1.60;63.50;;;;;;5050001;28;20025;-76
2021/12/04 14:35:22;;;;;;;48.53;20.77;;;1.60;63.30;;;;;;5051215;28;20025;-76
2021/12/04 14:37:51;;;;;;;49.63;22.67;;;1.60;63.70;;;;;;5051951;28;20028;-76
2021/12/04 14:40:22;;;;;;;45.25;21.35;;;1.50;64.10;;;;;;5050880;28;20090;-76
2021/12/04 14:42:48;;;;;;;53.85;23.92;;;1.50;64.80;;;;;;5050710;28;20021;-76
2021/12/04 14:45:21;;;;;;;50.10;23.88;;;1.50;64.40;;;;;;5052066;28;20029;-77
2021/12/04 14:48:00;;;;;;;51.40;21.60;;;1.50;64.30;;;;;;5050746;27;20057;-76
2021/12/04 14:50:26;;;;;;;59.28;30.20;;;1.50;63.60;;;;;;5051935;28;20021;-76
2021/12/04 14:52:56;;;;;;;60.85;27.55;;;1.50;63.30;;;;;;5051870;28;20033;-77
2021/12/04 14:55:39;;;;;;;59.50;27.38;;;1.40;62.60;;;;;;5050097;28;20033;-76
2021/12/04 14:58:13;;;;;;;54.35;26.95;;;1.40;63.20;;;;;;5050116;27;20052;-76
2021/12/04 15:00:40;;;;;;;50.38;26.40;;;1.40;63.30;;;;;;5051469;28;20111;-76
2021/12/04 15:03:10;;;;;;;56.10;25.48;;;1.40;63.10;;;;;;5049624;28;20017;-77
2021/12/04 15:05:47;;;;;;;66.90;31.27;;;1.40;63.30;;;;;;5050167;27;20481;-77
2021/12/04 15:08:22;;;;;;;141.00;53.35;;;1.30;63.00;;;;;;5051306;28;20495;-76
2021/12/04 15:11:00;;;;;;;90.72;37.92;;;1.30;63.70;;;;;;5049294;28;20070;-76
2021/12/04 15:13:30;;;;;;;58.03;28.77;;;1.30;63.30;;;;;;5050233;27;20029;-76
2021/12/04 15:16:00;;;;;;;136.95;59.72;;;1.30;63.30;;;;;;5050373;27;20567;-76
2021/12/04 15:18:35;;;;;;;127.00;47.45;;;1.20;63.40;;;;;;5079214;27;20111;-76
2021/12/04 15:21:19;;;;;;;46.80;15.65;;;1.20;64.80;;;;;;5100553;27;20023;-76
2021/12/04 15:23:54;;;;;;;55.92;29.60;;;1.20;64.40;;;;;;5106788;27;20100;-76
2021/12/04 15:26:20;;;;;;;67.72;31.83;;;1.20;65.50;;;;;;5101383;27;20052;-76
2021/12/04 15:28:50;;;;;;;38.13;15.77;;;1.10;65.30;;;;;;5140308;27;20439;-76
2021/12/04 15:31:18;;;;;;;34.03;12.43;;;1.10;67.60;;;;;;5156413;27;20019;-76
2021/12/04 15:33:47;;;;;;;88.80;36.13;;;1.00;71.80;;;;;;5154995;27;20031;-76
2021/12/04 15:36:28;;;;;;;118.60;52.67;;;0.90;77.40;;;;;;5135456;27;20048;-76
2021/12/04 15:38:57;;;;;;;73.63;25.95;;;0.90;84.80;;;;;;5049096;28;20069;-76
2021/12/04 15:47:29;;;;;;;42.22;19.77;;;0.70;98.60;;;;;;5064547;27;20052;-76
2021/12/04 15:53:07;;;;;;;21.35;11.15;;;0.70;99.90;;;;;;5051387;28;20067;-76
2021/12/04 15:55:49;;;;;;;38.72;17.70;;;0.60;99.90;;;;;;5050969;28;20022;-75
2021/12/04 15:58:18;;;;;;;26.23;13.70;;;0.60;99.90;;;;;;5049745;28;20115;-76
2021/12/04 16:00:54;;;;;;;24.33;12.18;;;0.60;99.90;;;;;;5049572;28;20432;-75